createdAt,value
2022-08-20T00:01:33.259Z,100840.63
2022-08-20T00:04:36.000Z,100835.88
2022-08-20T00:07:43.924Z,100839.00
2022-08-20T00:10:49.728Z,100849.69
2022-08-20T00:13:59.997Z,100854.94
2022-08-20T00:17:02.866Z,100851.81
2022-08-20T00:20:06.002Z,100847.69
2022-08-20T00:23:10.740Z,100842.94
2022-08-20T00:26:14.802Z,100852.13
2022-08-20T00:29:17.629Z,100857.06
2022-08-20T00:32:23.051Z,100849.00
2022-08-20T00:35:29.189Z,100857.88
2022-08-20T00:38:34.188Z,100855.56
2022-08-20T00:41:37.060Z,100852.13
2022-08-20T00:44:46.126Z,100848.47
2022-08-20T00:47:51.224Z,100847.38
2022-08-20T00:50:57.838Z,100849.81
2022-08-20T00:54:06.749Z,100853.13
2022-08-20T00:57:12.564Z,100840.47
2022-08-20T01:00:19.022Z,100847.88
2022-08-20T01:03:22.163Z,100855.75
2022-08-20T01:06:26.240Z,100861.81
2022-08-20T01:09:33.331Z,100861.31
2022-08-20T01:12:54.960Z,100863.78
2022-08-20T01:16:04.228Z,100869.81
2022-08-20T01:19:30.126Z,100866.03
2022-08-20T01:23:11.681Z,100867.22
2022-08-20T01:26:19.612Z,100874.59
2022-08-20T01:29:26.835Z,100866.25
2022-08-20T01:32:29.754Z,100866.56
2022-08-20T01:35:37.750Z,100870.84
2022-08-20T01:38:41.802Z,100864.59
2022-08-20T01:42:05.260Z,100872.81
2022-08-20T01:45:08.616Z,100872.81
2022-08-20T01:48:12.016Z,100872.13
2022-08-20T01:51:20.102Z,100878.53
2022-08-20T01:54:23.332Z,100870.50
2022-08-20T01:57:29.323Z,100882.28
2022-08-20T02:00:32.514Z,100891.00
2022-08-20T02:03:39.789Z,100880.50
2022-08-20T02:06:56.306Z,100883.28
2022-08-20T02:10:01.126Z,100883.13
2022-08-20T02:13:08.890Z,100881.34
2022-08-20T02:16:11.564Z,100876.91
2022-08-20T02:19:21.008Z,100881.16
2022-08-20T02:22:28.101Z,100880.16
2022-08-20T02:25:35.762Z,100881.31
2022-08-20T02:28:39.762Z,100888.19
2022-08-20T02:32:24.351Z,100885.56
2022-08-20T02:35:10.600Z,100896.25
2022-08-20T02:38:15.555Z,100901.81
2022-08-20T02:41:18.587Z,100888.34
2022-08-20T02:44:22.591Z,100899.66
2022-08-20T02:47:26.126Z,100897.97
2022-08-20T02:50:28.843Z,100893.91
2022-08-20T02:53:34.049Z,100906.72
2022-08-20T02:56:36.971Z,100903.09
2022-08-20T02:59:42.071Z,100905.06
2022-08-20T03:02:45.284Z,100900.81
2022-08-20T03:05:48.055Z,100907.97
2022-08-20T03:08:51.001Z,100905.19
2022-08-20T03:11:54.310Z,100892.41
2022-08-20T03:14:58.413Z,100891.91
2022-08-20T03:18:01.860Z,100875.50
2022-08-20T03:21:06.620Z,100883.22
2022-08-20T03:24:12.750Z,100882.56
2022-08-20T03:27:15.537Z,100871.75
2022-08-20T03:30:20.320Z,100871.13
2022-08-20T03:33:24.244Z,100869.97
2022-08-20T03:36:29.460Z,100864.53
2022-08-20T03:39:32.277Z,100864.06
2022-08-20T03:42:35.072Z,100860.44
2022-08-20T03:45:40.566Z,100860.31
2022-08-20T03:48:43.417Z,100858.00
2022-08-20T03:51:57.515Z,100859.66
2022-08-20T03:55:01.019Z,100866.38
2022-08-20T03:58:07.541Z,100867.66
2022-08-20T04:01:36.823Z,100870.25
2022-08-20T04:04:34.502Z,100869.72
2022-08-20T04:07:37.939Z,100871.41
2022-08-20T04:10:40.633Z,100880.47
2022-08-20T04:13:43.547Z,100889.31
2022-08-20T04:16:49.016Z,100888.16
2022-08-20T04:19:52.018Z,100890.97
2022-08-20T04:22:59.369Z,100891.13
2022-08-20T04:26:02.579Z,100899.38
2022-08-20T04:29:05.534Z,100908.03
2022-08-20T04:32:09.884Z,100904.44
2022-08-20T04:35:18.221Z,100903.63
2022-08-20T04:38:26.192Z,100902.47
2022-08-20T04:41:48.920Z,100904.44
2022-08-20T04:44:51.605Z,100897.59
2022-08-20T04:47:56.204Z,100903.47
2022-08-20T04:51:00.082Z,100912.16
2022-08-20T04:54:04.621Z,100909.25
2022-08-20T04:57:07.277Z,100897.88
2022-08-20T05:00:14.330Z,100909.88
2022-08-20T05:03:19.165Z,100914.34
2022-08-20T05:06:24.617Z,100910.69
2022-08-20T05:09:27.360Z,100914.63
2022-08-20T05:12:29.937Z,100914.31
2022-08-20T05:15:32.723Z,100914.31
2022-08-20T05:18:37.201Z,100921.00
2022-08-20T05:21:40.996Z,100917.06
2022-08-20T05:24:43.670Z,100927.56
2022-08-20T05:27:47.877Z,100935.94
2022-08-20T05:30:52.239Z,100933.81
2022-08-20T05:33:57.861Z,100933.47
2022-08-20T05:37:02.940Z,100931.16
2022-08-20T05:40:10.887Z,100933.13
2022-08-20T05:43:13.602Z,100938.59
2022-08-20T05:46:17.021Z,100937.44
2022-08-20T05:49:22.774Z,100922.00
2022-08-20T05:52:25.545Z,100929.72
2022-08-20T05:55:29.030Z,100931.03
2022-08-20T05:58:32.976Z,100937.47
2022-08-20T06:01:39.351Z,100920.88
2022-08-20T06:04:42.434Z,100927.44
2022-08-20T06:07:45.153Z,100933.34
2022-08-20T06:10:47.850Z,100932.38
2022-08-20T06:13:53.627Z,100933.00
2022-08-20T06:16:57.600Z,100934.31
2022-08-20T06:20:07.876Z,100942.31
2022-08-20T06:23:10.527Z,100944.66
2022-08-20T06:26:13.340Z,100950.06
2022-08-20T06:29:16.880Z,100955.16
2022-08-20T06:32:31.802Z,100963.09
2022-08-20T06:35:37.694Z,100963.66
2022-08-20T06:38:40.437Z,100961.69
2022-08-20T06:41:43.474Z,100965.16
2022-08-20T06:44:50.012Z,100964.34
2022-08-20T06:47:55.830Z,100965.88
2022-08-20T06:51:00.149Z,100965.22
2022-08-20T06:54:02.916Z,100966.84
2022-08-20T06:57:06.363Z,100965.72
2022-08-20T07:00:14.413Z,100971.47
2022-08-20T07:03:18.041Z,100978.69
2022-08-20T07:06:22.040Z,100982.94
2022-08-20T07:09:26.744Z,100978.50
2022-08-20T07:12:29.485Z,100968.81
2022-08-20T07:15:32.390Z,100973.25
2022-08-20T07:18:35.146Z,100982.28
2022-08-20T07:21:39.298Z,100991.31
2022-08-20T07:24:44.952Z,100998.41
2022-08-20T07:27:52.273Z,101000.66
2022-08-20T07:34:34.533Z,101006.41
2022-08-20T07:37:41.384Z,101011.84
2022-08-20T07:40:44.440Z,101012.66
2022-08-20T07:43:48.232Z,101009.25
2022-08-20T07:46:51.014Z,101015.66
2022-08-20T07:49:53.660Z,101008.50
2022-08-20T07:53:01.391Z,101011.66
2022-08-20T07:56:05.919Z,101010.69
2022-08-20T07:59:13.965Z,101008.56
2022-08-20T08:02:16.645Z,101006.38
2022-08-20T08:05:19.793Z,101005.44
2022-08-20T08:08:26.816Z,101017.63
2022-08-20T08:11:29.928Z,101017.09
2022-08-20T08:14:35.660Z,101013.97
2022-08-20T08:17:38.758Z,101023.16
2022-08-20T08:20:46.794Z,101025.78
2022-08-20T08:23:51.281Z,101026.97
2022-08-20T08:26:54.084Z,101029.09
2022-08-20T08:29:56.871Z,101040.25
2022-08-20T08:33:16.939Z,101045.50
2022-08-20T08:36:19.753Z,101047.00
2022-08-20T08:39:23.895Z,101044.41
2022-08-20T08:42:37.984Z,101028.47
2022-08-20T08:45:48.354Z,101023.56
2022-08-20T08:48:54.452Z,101028.66
2022-08-20T08:52:04.382Z,101029.16
2022-08-20T08:55:23.316Z,101029.63
2022-08-20T08:58:28.056Z,101034.56
2022-08-20T09:01:54.152Z,101028.00
2022-08-20T09:04:59.220Z,101039.31
2022-08-20T09:08:04.050Z,101042.41
2022-08-20T09:11:10.600Z,101038.66
2022-08-20T09:14:13.435Z,101040.16
2022-08-20T09:17:17.029Z,101040.31
2022-08-20T09:20:20.342Z,101044.59
2022-08-20T09:23:28.784Z,101053.66
2022-08-20T09:26:34.554Z,101053.47
2022-08-20T09:29:41.053Z,101058.91
2022-08-20T09:32:44.758Z,101057.59
2022-08-20T09:35:47.579Z,101054.97
2022-08-20T09:38:50.347Z,101058.56
2022-08-20T09:41:54.464Z,101053.78
2022-08-20T09:44:57.560Z,101055.59
2022-08-20T09:48:00.518Z,101048.69
2022-08-20T09:51:04.630Z,101052.63
2022-08-20T09:54:07.688Z,101057.34
2022-08-20T09:57:12.570Z,101053.53
2022-08-20T10:00:15.892Z,101049.94
2022-08-20T10:03:18.784Z,101053.69
2022-08-20T10:06:22.139Z,101047.94
2022-08-20T10:09:25.317Z,101046.22
2022-08-20T10:12:29.627Z,101045.25
2022-08-20T10:15:33.416Z,101052.28
2022-08-20T10:18:37.195Z,101052.84
2022-08-20T10:21:39.994Z,101046.34
2022-08-20T10:24:42.818Z,101052.13
2022-08-20T10:27:46.955Z,101055.88
2022-08-20T10:30:49.611Z,101060.16
2022-08-20T10:33:52.360Z,101058.00
2022-08-20T10:36:55.170Z,101060.81
2022-08-20T10:39:57.967Z,101052.41
2022-08-20T10:43:05.130Z,101059.94
2022-08-20T10:46:08.070Z,101051.09
2022-08-20T10:49:10.684Z,101047.56
2022-08-20T10:52:13.447Z,101049.47
2022-08-20T10:55:16.301Z,101050.97
2022-08-20T10:58:23.109Z,101048.63
2022-08-20T11:01:32.621Z,101051.84
2022-08-20T11:04:35.866Z,101058.50
2022-08-20T11:07:59.796Z,101062.13
2022-08-20T11:11:02.798Z,101066.56
2022-08-20T11:14:06.978Z,101067.94
2022-08-20T11:17:10.224Z,101068.06
2022-08-20T11:20:14.775Z,101070.63
2022-08-20T11:23:17.580Z,101066.88
2022-08-20T11:26:23.935Z,101074.13
2022-08-20T11:29:32.144Z,101079.16
2022-08-20T11:32:36.938Z,101073.56
2022-08-20T11:35:48.676Z,101079.44
2022-08-20T11:38:52.426Z,101083.50
2022-08-20T11:41:55.331Z,101072.88
2022-08-20T11:44:59.725Z,101081.34
2022-08-20T11:48:02.563Z,101083.44
2022-08-20T11:51:05.626Z,101082.75
2022-08-20T11:54:08.389Z,101087.47
2022-08-20T11:57:11.374Z,101079.28
2022-08-20T12:00:19.189Z,101089.50
2022-08-20T12:03:21.962Z,101082.34
2022-08-20T12:06:24.869Z,101091.66
2022-08-20T12:09:29.103Z,101088.63
2022-08-20T12:12:31.754Z,101085.06
2022-08-20T12:15:36.497Z,101079.38
2022-08-20T12:18:39.352Z,101081.38
2022-08-20T12:21:42.149Z,101093.31
2022-08-20T12:24:45.075Z,101086.41
2022-08-20T12:27:48.724Z,101094.34
2022-08-20T12:30:52.897Z,101095.56
2022-08-20T12:33:55.530Z,101094.75
2022-08-20T12:37:02.826Z,101097.09
2022-08-20T12:40:09.069Z,101093.47
2022-08-20T12:43:11.959Z,101101.53
2022-08-20T12:46:15.909Z,101097.84
2022-08-20T12:49:18.749Z,101100.63
2022-08-20T12:52:24.169Z,101099.41
2022-08-20T12:55:27.037Z,101098.25
2022-08-20T12:58:29.872Z,101100.81
2022-08-20T13:01:33.971Z,101101.78
2022-08-20T13:04:36.814Z,101097.66
2022-08-20T13:07:40.315Z,101097.78
2022-08-20T13:10:45.631Z,101102.41
2022-08-20T13:13:48.484Z,101104.91
2022-08-20T13:16:57.957Z,101093.91
2022-08-20T13:20:04.399Z,101101.31
2022-08-20T13:23:07.450Z,101109.38
2022-08-20T13:26:12.679Z,101114.66
2022-08-20T13:29:15.726Z,101109.22
2022-08-20T13:32:20.723Z,101101.81
2022-08-20T13:35:23.541Z,101110.84
2022-08-20T13:38:26.413Z,101102.66
2022-08-20T13:41:29.628Z,101104.44
2022-08-20T13:44:32.998Z,101112.72
2022-08-20T13:47:38.905Z,101103.16
2022-08-20T13:50:41.747Z,101096.09
2022-08-20T13:53:44.535Z,101099.38
2022-08-20T13:56:47.243Z,101106.59
2022-08-20T13:59:52.242Z,101108.75
2022-08-20T14:02:56.695Z,101109.72
2022-08-20T14:06:01.556Z,101098.88
2022-08-20T14:09:04.235Z,101104.78
2022-08-20T14:12:07.662Z,101094.63
2022-08-20T14:15:11.909Z,101084.06
2022-08-20T14:18:16.609Z,101085.72
2022-08-20T14:21:19.449Z,101085.38
2022-08-20T14:24:22.168Z,101088.31
2022-08-20T14:27:30.693Z,101090.16
2022-08-20T14:30:34.050Z,101090.31
2022-08-20T14:33:41.345Z,101095.91
2022-08-20T14:36:47.159Z,101101.16
2022-08-20T14:39:54.948Z,101107.56
2022-08-20T14:42:57.914Z,101100.66
2022-08-20T14:46:00.825Z,101103.63
2022-08-20T14:49:05.007Z,101101.63
2022-08-20T14:52:07.682Z,101102.47
2022-08-20T14:55:13.355Z,101110.66
2022-08-20T14:58:17.084Z,101113.66
2022-08-20T15:01:19.767Z,101108.91
2022-08-20T15:04:23.900Z,101112.69
2022-08-20T15:07:31.073Z,101096.06
2022-08-20T15:10:34.568Z,101096.88
2022-08-20T15:13:37.213Z,101099.19
2022-08-20T15:16:40.470Z,101102.16
2022-08-20T15:19:44.588Z,101091.47
2022-08-20T15:22:47.348Z,101107.09
2022-08-20T15:25:50.136Z,101110.22
2022-08-20T15:28:52.967Z,101110.56
2022-08-20T15:31:55.598Z,101109.22
2022-08-20T15:34:59.784Z,101107.09
2022-08-20T15:38:02.982Z,101108.88
2022-08-20T15:41:06.181Z,101105.94
2022-08-20T15:44:08.797Z,101106.75
2022-08-20T15:47:21.505Z,101105.25
2022-08-20T15:50:37.497Z,101108.53
2022-08-20T15:53:55.411Z,101108.06
2022-08-20T15:57:04.549Z,101109.53
2022-08-20T16:00:24.947Z,101108.41
2022-08-20T16:03:41.348Z,101112.00
2022-08-20T16:06:51.351Z,101115.78
2022-08-20T16:10:04.187Z,101107.06
2022-08-20T16:13:13.349Z,101106.06
2022-08-20T16:16:26.607Z,101107.25
2022-08-20T16:19:36.103Z,101107.72
2022-08-20T16:22:45.649Z,101101.31
2022-08-20T16:25:59.898Z,101104.44
2022-08-20T16:29:11.678Z,101108.06
2022-08-20T16:32:25.882Z,101101.63
2022-08-20T16:35:32.711Z,101113.81
2022-08-20T16:38:45.488Z,101129.13
2022-08-20T16:41:52.150Z,101120.41
2022-08-20T16:44:57.879Z,101120.91
2022-08-20T16:48:02.833Z,101127.34
2022-08-20T16:51:12.141Z,101128.16
2022-08-20T16:54:16.780Z,101133.91
2022-08-20T16:57:21.996Z,101139.34
2022-08-20T17:00:29.522Z,101127.50
2022-08-20T17:03:40.358Z,101129.78
2022-08-20T17:06:47.289Z,101131.44
2022-08-20T17:09:51.453Z,101133.59
2022-08-20T17:12:59.415Z,101137.34
2022-08-20T17:16:05.519Z,101133.25
2022-08-20T17:19:20.982Z,101146.75
2022-08-20T17:22:25.222Z,101164.16
2022-08-20T17:25:35.069Z,101165.28
2022-08-20T17:28:37.777Z,101160.44
2022-08-20T17:31:43.695Z,101160.47
2022-08-20T17:34:48.607Z,101162.75
2022-08-20T17:37:54.011Z,101159.31
2022-08-20T17:41:01.943Z,101160.63
2022-08-20T17:44:07.209Z,101158.59
2022-08-20T17:47:15.351Z,101155.63
2022-08-20T17:50:21.657Z,101151.44
2022-08-20T17:53:27.380Z,101155.56
2022-08-20T17:56:35.484Z,101158.59
2022-08-20T17:59:59.983Z,101155.44
2022-08-20T18:03:20.138Z,101156.94
2022-08-20T18:06:31.100Z,101162.50
2022-08-20T18:09:44.632Z,101161.78
2022-08-20T18:12:59.135Z,101162.50
2022-08-20T18:16:03.108Z,101165.72
2022-08-20T18:19:16.066Z,101176.13
2022-08-20T18:22:24.346Z,101169.91
2022-08-20T18:25:34.745Z,101170.06
2022-08-20T18:28:44.848Z,101164.50
2022-08-20T18:31:52.373Z,101167.63
2022-08-20T18:34:56.279Z,101173.19
2022-08-20T18:37:59.098Z,101174.66
2022-08-20T18:41:10.986Z,101167.75
2022-08-20T18:44:27.748Z,101170.22
2022-08-20T18:47:41.130Z,101171.16
2022-08-20T18:50:48.431Z,101179.19
2022-08-20T18:53:52.085Z,101182.69
2022-08-20T18:57:05.467Z,101180.13
2022-08-20T19:00:14.450Z,101192.03
2022-08-20T19:03:22.556Z,101186.06
2022-08-20T19:06:37.242Z,101184.59
2022-08-20T19:09:57.625Z,101188.63
2022-08-20T19:13:19.859Z,101191.28
2022-08-20T19:16:34.678Z,101200.38
2022-08-20T19:19:38.241Z,101192.53
2022-08-20T19:22:43.477Z,101192.69
2022-08-20T19:25:55.367Z,101203.25
2022-08-20T19:29:00.377Z,101200.38
2022-08-20T19:32:08.068Z,101202.06
2022-08-20T19:35:11.021Z,101200.81
2022-08-20T19:38:17.531Z,101204.34
2022-08-20T19:41:29.254Z,101201.25
2022-08-20T19:44:39.637Z,101201.56
2022-08-20T19:47:55.363Z,101196.81
2022-08-20T19:51:05.865Z,101198.56
2022-08-20T19:54:08.678Z,101195.25
2022-08-20T19:57:12.514Z,101188.16
2022-08-20T20:00:17.172Z,101195.19
2022-08-20T20:03:23.939Z,101198.59
2022-08-20T20:06:28.769Z,101195.78
2022-08-20T20:09:31.719Z,101193.44
2022-08-20T20:12:35.725Z,101200.47
2022-08-20T20:15:39.946Z,101200.16
2022-08-20T20:18:44.893Z,101207.44
2022-08-20T20:21:50.347Z,101208.38
2022-08-20T20:25:02.690Z,101209.13
2022-08-20T20:28:12.385Z,101211.69
2022-08-20T20:31:22.304Z,101202.28
2022-08-20T20:34:28.915Z,101208.06
2022-08-20T20:37:49.188Z,101210.78
2022-08-20T20:40:56.162Z,101212.72
2022-08-20T20:44:02.036Z,101204.56
2022-08-20T20:47:07.381Z,101210.78
2022-08-20T20:50:13.580Z,101207.69
2022-08-20T20:53:31.408Z,101210.03
2022-08-20T20:56:59.641Z,101209.63
2022-08-20T21:00:02.431Z,101208.88
2022-08-20T21:03:05.304Z,101208.59
2022-08-20T21:06:09.559Z,101202.09
2022-08-20T21:09:12.352Z,101202.09
2022-08-20T21:12:15.055Z,101199.41
2022-08-20T21:15:17.831Z,101186.53
2022-08-20T21:18:24.157Z,101198.06
2022-08-20T21:21:30.692Z,101192.94
2022-08-20T21:24:33.612Z,101189.63
2022-08-20T21:27:36.952Z,101199.00
2022-08-20T21:30:39.766Z,101193.31
2022-08-20T21:33:42.492Z,101197.41
2022-08-20T21:36:46.666Z,101200.53
2022-08-20T21:39:49.504Z,101195.25
2022-08-20T21:42:52.271Z,101193.81
2022-08-20T21:45:56.648Z,101190.50
2022-08-20T21:48:59.586Z,101195.25
2022-08-20T21:52:06.819Z,101189.69
2022-08-20T21:55:10.480Z,101197.72
2022-08-20T21:58:13.372Z,101189.19
2022-08-20T22:01:16.455Z,101178.53
2022-08-20T22:04:19.542Z,101179.88
2022-08-20T22:07:23.706Z,101172.88
2022-08-20T22:10:26.393Z,101166.88
2022-08-20T22:13:33.688Z,101163.25
2022-08-20T22:16:36.544Z,101176.69
2022-08-20T22:19:39.133Z,101171.13
2022-08-20T22:22:43.331Z,101172.06
2022-08-20T22:25:49.411Z,101169.38
2022-08-20T22:28:52.301Z,101165.75
2022-08-20T22:31:55.325Z,101172.97
2022-08-20T22:34:59.096Z,101162.88
2022-08-20T22:38:03.254Z,101167.09
2022-08-20T22:41:09.593Z,101166.25
2022-08-20T22:44:12.744Z,101175.25
2022-08-20T22:47:16.131Z,101170.19
2022-08-20T22:50:20.533Z,101166.69
2022-08-20T22:53:27.199Z,101166.69
2022-08-20T22:56:30.092Z,101182.69
2022-08-20T22:59:33.017Z,101166.91
2022-08-20T23:02:45.950Z,101177.03
2022-08-20T23:05:49.455Z,101173.75
2022-08-20T23:08:53.556Z,101173.50
2022-08-20T23:11:56.402Z,101179.91
2022-08-20T23:14:59.255Z,101177.34
2022-08-20T23:18:06.176Z,101182.63
2022-08-20T23:21:08.809Z,101181.16
2022-08-20T23:24:14.509Z,101177.63
2022-08-20T23:27:20.739Z,101180.19
2022-08-20T23:30:25.062Z,101181.56
2022-08-20T23:33:28.959Z,101182.16
2022-08-20T23:36:32.230Z,101182.97
2022-08-20T23:39:36.624Z,101184.00
2022-08-20T23:42:40.105Z,101179.38
2022-08-20T23:45:43.464Z,101177.72
2022-08-20T23:48:46.250Z,101175.44
2022-08-20T23:51:48.942Z,101191.44
2022-08-20T23:54:53.102Z,101180.69
2022-08-20T23:57:56.499Z,101187.00
